createdAt,value
2022-10-19T00:01:14.681Z,100.00
2022-10-19T00:03:43.187Z,100.00
2022-10-19T00:06:15.626Z,100.00
2022-10-19T00:08:42.934Z,100.00
2022-10-19T00:11:10.523Z,100.00
2022-10-19T00:13:37.431Z,100.00
2022-10-19T00:16:11.517Z,100.00
2022-10-19T00:18:39.736Z,100.00
2022-10-19T00:21:08.561Z,100.00
2022-10-19T00:23:35.812Z,100.00
2022-10-19T00:26:03.040Z,100.00
2022-10-19T00:28:30.561Z,100.00
2022-10-19T00:31:06.657Z,100.00
2022-10-19T00:33:33.914Z,100.00
2022-10-19T00:36:01.559Z,100.00
2022-10-19T00:38:28.332Z,100.00
2022-10-19T00:40:55.309Z,100.00
2022-10-19T00:43:24.867Z,100.00
2022-10-19T00:45:52.955Z,100.00
2022-10-19T00:48:31.919Z,100.00
2022-10-19T00:51:00.394Z,100.00
2022-10-19T00:53:30.451Z,100.00
2022-10-19T00:55:59.409Z,100.00
2022-10-19T00:58:26.154Z,100.00
2022-10-19T01:00:53.293Z,100.00
2022-10-19T01:03:21.163Z,100.00
2022-10-19T01:05:48.638Z,100.00
2022-10-19T01:08:15.787Z,100.00
2022-10-19T01:11:03.976Z,100.00
2022-10-19T01:13:54.196Z,100.00
2022-10-19T01:16:42.478Z,100.00
2022-10-19T01:19:44.707Z,100.00
2022-10-19T01:22:36.348Z,100.00
2022-10-19T01:25:37.242Z,100.00
2022-10-19T01:28:34.620Z,100.00
2022-10-19T01:31:18.205Z,100.00
2022-10-19T01:34:14.967Z,100.00
2022-10-19T01:37:02.573Z,100.00
2022-10-19T01:39:51.981Z,100.00
2022-10-19T01:42:52.346Z,100.00
2022-10-19T01:45:25.127Z,100.00
2022-10-19T01:48:02.632Z,100.00
2022-10-19T01:50:44.777Z,100.00
2022-10-19T01:53:14.101Z,100.00
2022-10-19T01:55:44.897Z,100.00
2022-10-19T01:58:17.117Z,100.00
2022-10-19T02:00:46.770Z,100.00
2022-10-19T02:03:14.596Z,100.00
2022-10-19T02:05:45.803Z,100.00
2022-10-19T02:08:18.304Z,100.00
2022-10-19T02:10:46.474Z,100.00
2022-10-19T02:13:16.407Z,100.00
2022-10-19T02:15:47.662Z,100.00
2022-10-19T02:18:19.803Z,100.00
2022-10-19T02:20:47.132Z,100.00
2022-10-19T02:23:19.200Z,100.00
2022-10-19T02:25:46.543Z,100.00
2022-10-19T02:28:13.362Z,100.00
2022-10-19T02:30:40.408Z,100.00
2022-10-19T02:33:07.943Z,100.00
2022-10-19T02:35:35.064Z,100.00
2022-10-19T02:38:04.393Z,100.00
2022-10-19T02:40:36.676Z,100.00
2022-10-19T02:43:07.661Z,100.00
2022-10-19T02:45:44.845Z,100.00
2022-10-19T02:48:18.485Z,100.00
2022-10-19T02:50:47.770Z,100.00
2022-10-19T02:53:16.026Z,100.00
2022-10-19T02:55:43.453Z,100.00
2022-10-19T02:58:10.242Z,100.00
2022-10-19T03:00:37.238Z,100.00
2022-10-19T03:03:04.008Z,100.00
2022-10-19T03:05:31.059Z,100.00
2022-10-19T03:07:57.771Z,100.00
2022-10-19T03:10:24.685Z,100.00
2022-10-19T03:12:51.459Z,100.00
2022-10-19T03:15:19.667Z,100.00
2022-10-19T03:17:46.403Z,100.00
2022-10-19T03:20:13.359Z,100.00
2022-10-19T03:22:40.143Z,100.00
2022-10-19T03:25:07.505Z,100.00
2022-10-19T03:27:34.403Z,100.00
2022-10-19T03:30:01.668Z,100.00
2022-10-19T03:32:28.404Z,100.00
2022-10-19T03:34:55.347Z,100.00
2022-10-19T03:37:22.100Z,100.00
2022-10-19T03:39:49.002Z,100.00
2022-10-19T03:42:15.769Z,100.00
2022-10-19T03:44:42.743Z,100.00
2022-10-19T03:47:09.460Z,100.00
2022-10-19T03:49:38.116Z,100.00
2022-10-19T03:52:07.002Z,100.00
2022-10-19T03:54:33.928Z,100.00
2022-10-19T03:57:00.634Z,100.00
2022-10-19T03:59:27.663Z,100.00
2022-10-19T04:01:54.478Z,100.00
2022-10-19T04:04:21.470Z,100.00
2022-10-19T04:06:50.100Z,97.98
2022-10-19T04:09:19.279Z,96.93
2022-10-19T04:11:46.263Z,96.69
2022-10-19T04:14:22.708Z,96.62
2022-10-19T04:17:01.245Z,96.47
2022-10-19T04:19:28.301Z,96.36
2022-10-19T04:21:55.057Z,96.36
2022-10-19T04:24:22.224Z,96.45
2022-10-19T04:26:55.071Z,96.67
2022-10-19T04:29:26.469Z,96.90
2022-10-19T04:31:56.668Z,96.76
2022-10-19T04:34:24.189Z,96.77
2022-10-19T04:36:51.036Z,97.31
2022-10-19T04:39:17.992Z,97.74
2022-10-19T04:41:44.753Z,98.01
2022-10-19T04:44:11.741Z,98.50
2022-10-19T04:46:38.852Z,98.41
2022-10-19T04:49:06.906Z,99.24
2022-10-19T04:51:34.594Z,99.28
2022-10-19T04:54:04.850Z,99.84
2022-10-19T04:56:32.473Z,100.00
2022-10-19T04:59:00.881Z,100.00
2022-10-19T05:01:29.383Z,100.00
2022-10-19T05:03:59.492Z,99.67
2022-10-19T05:06:26.366Z,99.91
2022-10-19T05:08:53.368Z,99.35
2022-10-19T05:11:20.830Z,99.70
2022-10-19T05:13:48.522Z,97.96
2022-10-19T05:16:18.044Z,98.66
2022-10-19T05:18:56.099Z,98.21
2022-10-19T05:21:22.886Z,98.78
2022-10-19T05:23:54.506Z,98.80
2022-10-19T05:26:23.976Z,98.85
2022-10-19T05:28:57.064Z,100.00
2022-10-19T05:31:26.491Z,100.00
2022-10-19T05:33:53.781Z,100.00
2022-10-19T05:36:25.381Z,100.00
2022-10-19T05:38:54.028Z,100.00
2022-10-19T05:41:22.135Z,100.00
2022-10-19T05:43:53.779Z,100.00
2022-10-19T05:46:20.765Z,100.00
2022-10-19T05:48:48.043Z,100.00
2022-10-19T05:51:18.899Z,100.00
2022-10-19T05:53:46.369Z,100.00
2022-10-19T05:56:18.320Z,100.00
2022-10-19T05:58:46.094Z,100.00
2022-10-19T06:01:14.166Z,100.00
2022-10-19T06:03:41.208Z,100.00
2022-10-19T06:06:09.542Z,100.00
2022-10-19T06:08:37.869Z,100.00
2022-10-19T06:11:20.453Z,100.00
2022-10-19T06:13:50.660Z,100.00
2022-10-19T06:16:19.194Z,100.00
2022-10-19T06:18:46.683Z,100.00
2022-10-19T06:21:15.478Z,100.00
2022-10-19T06:26:15.185Z,100.00
2022-10-19T06:28:43.649Z,100.00
2022-10-19T06:31:11.432Z,100.00
2022-10-19T06:33:40.352Z,99.87
2022-10-19T06:36:16.367Z,100.00
2022-10-19T06:38:43.969Z,99.71
2022-10-19T06:41:11.721Z,99.58
2022-10-19T06:43:39.484Z,100.00
2022-10-19T06:46:11.708Z,99.69
2022-10-19T06:48:38.823Z,99.56
2022-10-19T06:51:09.667Z,98.80
2022-10-19T06:53:37.194Z,98.67
2022-10-19T06:56:05.980Z,99.09
2022-10-19T06:58:37.939Z,98.51
2022-10-19T07:01:07.695Z,97.72
2022-10-19T07:03:35.735Z,96.84
2022-10-19T07:06:05.570Z,96.87
2022-10-19T07:08:34.112Z,95.92
2022-10-19T07:11:03.345Z,96.16
2022-10-19T07:13:31.085Z,94.98
2022-10-19T07:15:59.982Z,93.44
2022-10-19T07:18:27.583Z,94.61
2022-10-19T07:21:05.721Z,93.03
2022-10-19T07:23:34.402Z,90.63
2022-10-19T07:26:12.699Z,91.23
2022-10-19T07:28:41.427Z,89.74
2022-10-19T07:31:11.949Z,88.21
2022-10-19T07:33:39.023Z,90.74
2022-10-19T07:36:08.598Z,85.31
2022-10-19T07:38:36.065Z,84.91
2022-10-19T07:41:08.580Z,83.92
2022-10-19T07:43:36.307Z,83.97
2022-10-19T07:46:06.290Z,83.48
2022-10-19T07:48:34.441Z,83.04
2022-10-19T07:51:02.587Z,82.42
2022-10-19T07:53:29.739Z,81.54
2022-10-19T07:55:56.553Z,81.28
2022-10-19T07:58:23.489Z,80.68
2022-10-19T08:00:50.244Z,80.18
2022-10-19T08:06:06.083Z,78.96
2022-10-19T08:08:33.911Z,77.33
2022-10-19T08:11:08.551Z,76.74
2022-10-19T08:13:35.941Z,76.39
2022-10-19T08:16:02.888Z,76.43
2022-10-19T08:21:02.465Z,75.41
2022-10-19T08:23:29.434Z,73.55
2022-10-19T08:25:59.947Z,73.23
2022-10-19T08:28:26.899Z,73.39
2022-10-19T08:30:58.073Z,74.22
2022-10-19T08:33:26.464Z,73.00
2022-10-19T08:35:54.173Z,72.96
2022-10-19T08:38:21.089Z,71.33
2022-10-19T08:40:47.983Z,70.13
2022-10-19T08:43:30.644Z,69.93
2022-10-19T08:46:10.286Z,69.62
2022-10-19T08:48:39.283Z,67.68
2022-10-19T08:51:09.292Z,67.21
2022-10-19T08:53:39.496Z,66.09
2022-10-19T08:56:49.830Z,65.79
2022-10-19T08:59:59.372Z,64.83
2022-10-19T09:02:54.411Z,64.97
2022-10-19T09:05:28.425Z,64.01
2022-10-19T09:07:55.802Z,63.49
2022-10-19T09:10:28.112Z,61.80
2022-10-19T09:13:05.445Z,61.42
2022-10-19T09:15:41.525Z,62.90
2022-10-19T09:18:12.220Z,62.42
2022-10-19T09:20:43.272Z,62.19
2022-10-19T09:23:40.500Z,60.97
2022-10-19T09:26:19.495Z,60.34
2022-10-19T09:28:58.482Z,59.69
2022-10-19T09:31:34.081Z,57.80
2022-10-19T09:34:07.669Z,57.01
2022-10-19T09:36:57.262Z,55.46
2022-10-19T09:39:28.660Z,55.30
2022-10-19T09:42:07.741Z,55.15
2022-10-19T09:44:34.841Z,54.34
2022-10-19T09:47:33.008Z,54.73
2022-10-19T09:50:15.300Z,54.68
2022-10-19T09:52:44.048Z,59.05
2022-10-19T09:55:19.770Z,60.24
2022-10-19T09:57:49.602Z,58.50
2022-10-19T10:00:25.552Z,58.45
2022-10-19T10:02:54.267Z,59.84
2022-10-19T10:05:32.458Z,60.04
2022-10-19T10:07:59.451Z,58.57
2022-10-19T10:10:38.791Z,59.55
2022-10-19T10:13:06.236Z,60.11
2022-10-19T10:15:43.999Z,60.01
2022-10-19T10:18:15.469Z,58.47
2022-10-19T10:23:27.659Z,58.95
2022-10-19T10:25:58.985Z,55.35
2022-10-19T10:28:28.534Z,56.21
2022-10-19T10:31:19.006Z,55.39
2022-10-19T10:33:54.536Z,55.99
2022-10-19T10:36:24.916Z,55.29
2022-10-19T10:38:54.684Z,52.06
2022-10-19T10:41:23.549Z,50.21
2022-10-19T10:43:59.566Z,50.45
2022-10-19T10:46:42.577Z,47.85
2022-10-19T10:49:21.448Z,44.70
2022-10-19T10:51:55.120Z,44.53
2022-10-19T10:54:23.752Z,44.14
2022-10-19T10:57:05.579Z,42.25
2022-10-19T10:59:56.515Z,41.59
2022-10-19T11:02:52.070Z,42.22
2022-10-19T11:05:24.366Z,43.66
2022-10-19T11:07:58.798Z,42.72
2022-10-19T11:10:33.304Z,42.74
2022-10-19T11:13:15.413Z,43.92
2022-10-19T11:16:03.113Z,43.95
2022-10-19T11:18:50.133Z,41.95
2022-10-19T11:21:19.637Z,41.59
2022-10-19T11:24:11.672Z,40.08
2022-10-19T11:26:41.356Z,40.18
2022-10-19T11:29:14.085Z,39.74
2022-10-19T11:31:48.330Z,40.04
2022-10-19T11:34:47.409Z,39.89
2022-10-19T11:37:28.969Z,40.88
2022-10-19T11:40:11.941Z,42.01
2022-10-19T11:42:57.253Z,41.36
2022-10-19T11:45:53.967Z,42.08
2022-10-19T11:48:52.959Z,41.00
2022-10-19T11:51:33.552Z,40.11
2022-10-19T11:54:14.572Z,42.00
2022-10-19T11:57:13.823Z,42.33
2022-10-19T11:59:52.608Z,43.50
2022-10-19T12:02:49.965Z,44.05
2022-10-19T12:05:21.873Z,45.49
2022-10-19T12:08:09.801Z,46.27
2022-10-19T12:10:57.512Z,46.51
2022-10-19T12:13:40.629Z,48.15
2022-10-19T12:16:11.012Z,48.12
2022-10-19T12:18:47.574Z,48.07
2022-10-19T12:21:24.968Z,48.63
2022-10-19T12:23:52.367Z,47.75
2022-10-19T12:26:22.290Z,47.93
2022-10-19T12:29:12.192Z,47.12
2022-10-19T12:31:39.789Z,46.19
2022-10-19T12:34:25.539Z,46.00
2022-10-19T12:37:23.801Z,46.66
2022-10-19T12:39:53.251Z,46.99
2022-10-19T12:42:33.241Z,46.94
2022-10-19T12:45:25.200Z,46.96
2022-10-19T12:48:19.069Z,47.14
2022-10-19T12:50:48.832Z,49.12
2022-10-19T12:53:41.065Z,49.08
2022-10-19T12:56:26.743Z,47.95
2022-10-19T12:59:01.437Z,47.42
2022-10-19T13:01:43.985Z,46.73
2022-10-19T13:04:15.285Z,46.58
2022-10-19T13:06:49.343Z,45.69
2022-10-19T13:09:41.991Z,45.66
2022-10-19T13:12:17.957Z,45.35
2022-10-19T13:14:57.287Z,45.84
2022-10-19T13:17:49.034Z,45.61
2022-10-19T13:20:16.218Z,45.96
2022-10-19T13:23:01.568Z,46.75
2022-10-19T13:25:30.746Z,46.11
2022-10-19T13:27:57.456Z,46.61
2022-10-19T13:30:36.434Z,45.44
2022-10-19T13:33:27.997Z,45.39
2022-10-19T13:36:00.999Z,44.34
2022-10-19T13:38:38.048Z,43.17
2022-10-19T13:41:18.250Z,42.23
2022-10-19T13:44:12.010Z,43.17
2022-10-19T13:46:38.899Z,44.16
2022-10-19T13:49:32.533Z,45.12
2022-10-19T13:52:17.969Z,45.04
2022-10-19T13:55:35.899Z,45.73
2022-10-19T13:58:33.707Z,45.48
2022-10-19T14:01:18.924Z,46.08
2022-10-19T14:04:12.403Z,45.36
2022-10-19T14:06:47.496Z,45.80
2022-10-19T14:09:35.632Z,46.73
2022-10-19T14:12:09.009Z,47.00
2022-10-19T14:17:20.819Z,48.50
2022-10-19T14:19:51.972Z,47.94
2022-10-19T14:22:33.502Z,49.11
2022-10-19T14:25:17.030Z,49.02
2022-10-19T14:27:45.351Z,49.68
2022-10-19T14:30:27.556Z,49.88
2022-10-19T14:32:58.151Z,50.10
2022-10-19T14:35:31.907Z,49.69
2022-10-19T14:38:00.189Z,50.08
2022-10-19T14:40:30.964Z,49.88
2022-10-19T14:42:59.639Z,50.33
2022-10-19T14:45:31.963Z,50.03
2022-10-19T14:48:17.514Z,50.61
2022-10-19T14:50:55.637Z,50.97
2022-10-19T14:54:03.903Z,48.88
2022-10-19T14:56:41.152Z,48.74
2022-10-19T14:59:19.557Z,49.25
2022-10-19T15:01:52.498Z,49.33
2022-10-19T15:04:27.239Z,47.71
2022-10-19T15:06:55.463Z,47.30
2022-10-19T15:09:36.972Z,47.38
2022-10-19T15:12:17.954Z,47.79
2022-10-19T15:14:46.124Z,48.32
2022-10-19T15:17:31.886Z,48.68
2022-10-19T15:20:01.380Z,48.38
2022-10-19T15:22:31.644Z,49.36
2022-10-19T15:24:58.592Z,50.41
2022-10-19T15:27:37.070Z,50.60
2022-10-19T15:30:22.534Z,51.11
2022-10-19T15:32:54.799Z,50.86
2022-10-19T15:35:32.158Z,51.04
2022-10-19T15:38:10.131Z,50.91
2022-10-19T15:40:39.866Z,51.43
2022-10-19T15:43:34.689Z,51.82
2022-10-19T15:46:13.465Z,52.32
2022-10-19T15:48:40.340Z,52.05
2022-10-19T15:51:27.272Z,51.70
2022-10-19T15:54:07.525Z,52.01
2022-10-19T15:56:38.837Z,52.60
2022-10-19T15:59:12.013Z,52.51
2022-10-19T16:01:39.231Z,52.11
2022-10-19T16:04:06.303Z,52.51
2022-10-19T16:06:34.689Z,54.25
2022-10-19T16:09:02.512Z,54.24
2022-10-19T16:11:31.515Z,54.27
2022-10-19T16:13:58.487Z,54.05
2022-10-19T16:16:31.615Z,54.48
2022-10-19T16:18:59.581Z,53.66
2022-10-19T16:21:30.463Z,53.42
2022-10-19T16:23:57.853Z,53.60
2022-10-19T16:26:26.228Z,53.77
2022-10-19T16:28:54.563Z,54.39
2022-10-19T16:31:21.838Z,54.44
2022-10-19T16:33:48.773Z,54.23
2022-10-19T16:36:18.342Z,53.94
2022-10-19T16:38:45.253Z,54.13
2022-10-19T16:41:13.719Z,54.43
2022-10-19T16:43:40.759Z,55.19
2022-10-19T16:46:07.972Z,55.17
2022-10-19T16:48:35.112Z,55.65
2022-10-19T16:51:08.124Z,55.94
2022-10-19T16:53:35.371Z,55.37
2022-10-19T16:56:09.897Z,55.38
2022-10-19T16:58:37.358Z,55.86
2022-10-19T17:01:18.062Z,56.10
2022-10-19T17:03:49.148Z,55.82
2022-10-19T17:06:17.299Z,56.44
2022-10-19T17:09:23.256Z,56.69
2022-10-19T17:11:34.084Z,57.08
2022-10-19T17:14:03.895Z,57.17
2022-10-19T17:16:33.141Z,57.25
2022-10-19T17:19:01.957Z,57.90
2022-10-19T17:21:32.327Z,58.42
2022-10-19T17:24:02.157Z,58.58
2022-10-19T17:26:35.445Z,58.84
2022-10-19T17:29:03.377Z,58.67
2022-10-19T17:31:30.572Z,58.88
2022-10-19T17:33:58.091Z,59.14
2022-10-19T17:36:28.219Z,59.25
2022-10-19T17:38:57.544Z,59.23
2022-10-19T17:41:25.518Z,59.00
2022-10-19T17:43:53.072Z,60.52
2022-10-19T17:46:23.878Z,59.71
2022-10-19T17:48:51.340Z,60.13
2022-10-19T17:51:27.410Z,60.39
2022-10-19T17:53:57.255Z,61.08
2022-10-19T17:56:24.823Z,60.41
2022-10-19T17:58:51.923Z,60.83
2022-10-19T18:01:20.914Z,60.96
2022-10-19T18:03:48.496Z,61.86
2022-10-19T18:06:21.928Z,61.54
2022-10-19T18:08:52.073Z,61.60
2022-10-19T18:11:24.864Z,62.71
2022-10-19T18:13:54.279Z,63.42
2022-10-19T18:16:30.074Z,63.25
2022-10-19T18:18:58.800Z,63.63
2022-10-19T18:21:31.420Z,63.96
2022-10-19T18:24:00.452Z,64.69
2022-10-19T18:26:30.322Z,64.47
2022-10-19T18:28:58.327Z,64.69
2022-10-19T18:31:30.623Z,65.41
2022-10-19T18:34:02.916Z,65.53
2022-10-19T18:36:30.672Z,65.89
2022-10-19T18:39:02.913Z,66.43
2022-10-19T18:41:30.387Z,66.28
2022-10-19T18:44:03.143Z,67.17
2022-10-19T18:46:33.885Z,67.27
2022-10-19T18:49:01.578Z,67.40
2022-10-19T18:51:28.970Z,67.81
2022-10-19T18:53:56.037Z,68.41
2022-10-19T18:56:23.192Z,68.89
2022-10-19T18:58:50.473Z,69.03
2022-10-19T19:01:24.088Z,69.67
2022-10-19T19:03:53.548Z,70.04
2022-10-19T19:06:22.725Z,70.29
2022-10-19T19:08:49.713Z,70.72
2022-10-19T19:11:29.652Z,71.27
2022-10-19T19:14:06.105Z,72.03
2022-10-19T19:16:35.662Z,72.55
2022-10-19T19:19:03.076Z,72.13
2022-10-19T19:21:31.660Z,73.01
2022-10-19T19:24:00.862Z,73.39
2022-10-19T19:26:30.863Z,73.23
2022-10-19T19:28:58.361Z,74.26
2022-10-19T19:31:25.580Z,74.34
2022-10-19T19:33:52.632Z,74.18
2022-10-19T19:36:20.372Z,74.10
2022-10-19T19:38:49.019Z,73.63
2022-10-19T19:41:16.440Z,75.40
2022-10-19T19:43:43.869Z,75.67
2022-10-19T19:46:16.706Z,75.79
2022-10-19T19:48:45.902Z,76.17
2022-10-19T19:51:16.028Z,76.10
2022-10-19T19:53:43.444Z,74.18
2022-10-19T19:56:12.256Z,73.37
2022-10-19T19:58:40.118Z,73.46
2022-10-19T20:01:16.545Z,73.02
2022-10-19T20:03:44.095Z,71.84
2022-10-19T20:06:10.999Z,72.31
2022-10-19T20:08:38.611Z,72.87
2022-10-19T20:11:08.882Z,72.59
2022-10-19T20:13:36.807Z,73.00
2022-10-19T20:16:08.646Z,73.04
2022-10-19T20:18:35.956Z,73.70
2022-10-19T20:21:03.968Z,72.73
2022-10-19T20:23:32.495Z,73.08
2022-10-19T20:25:59.250Z,73.18
2022-10-19T20:28:26.815Z,72.62
2022-10-19T20:31:01.749Z,73.04
2022-10-19T20:33:32.240Z,73.18
2022-10-19T20:36:06.514Z,72.81
2022-10-19T20:38:34.724Z,73.01
2022-10-19T20:41:09.905Z,72.40
2022-10-19T20:43:37.768Z,72.04
2022-10-19T20:46:13.210Z,71.46
2022-10-19T20:48:40.491Z,71.57
2022-10-19T20:51:18.961Z,71.46
2022-10-19T20:53:50.626Z,72.57
2022-10-19T20:56:21.661Z,73.13
2022-10-19T20:58:54.637Z,71.64
2022-10-19T21:01:21.966Z,72.81
2022-10-19T21:03:57.291Z,73.22
2022-10-19T21:06:28.848Z,72.96
2022-10-19T21:08:56.252Z,71.98
2022-10-19T21:11:28.969Z,71.76
2022-10-19T21:13:58.843Z,71.79
2022-10-19T21:16:27.561Z,72.55
2022-10-19T21:18:55.006Z,71.82
2022-10-19T21:21:24.961Z,72.04
2022-10-19T21:23:55.375Z,72.27
2022-10-19T21:26:25.113Z,73.13
2022-10-19T21:28:55.069Z,72.14
2022-10-19T21:31:23.403Z,73.01
2022-10-19T21:33:53.661Z,73.38
2022-10-19T21:36:21.797Z,73.15
2022-10-19T21:38:48.743Z,72.91
2022-10-19T21:41:20.803Z,73.33
2022-10-19T21:43:51.043Z,73.90
2022-10-19T21:46:19.752Z,75.26
2022-10-19T21:48:47.156Z,74.97
2022-10-19T21:51:16.806Z,76.68
2022-10-19T21:53:44.088Z,77.89
2022-10-19T21:56:10.868Z,77.87
2022-10-19T21:58:37.885Z,75.92
2022-10-19T22:01:08.599Z,75.72
2022-10-19T22:03:35.553Z,75.70
2022-10-19T22:06:02.353Z,75.50
2022-10-19T22:08:29.432Z,75.84
2022-10-19T22:10:56.504Z,76.61
2022-10-19T22:13:23.517Z,76.21
2022-10-19T22:15:50.221Z,75.91
2022-10-19T22:18:17.204Z,76.09
2022-10-19T22:20:44.036Z,76.50
2022-10-19T22:23:10.962Z,76.53
2022-10-19T22:25:37.731Z,77.34
2022-10-19T22:28:04.683Z,77.94
2022-10-19T22:30:31.437Z,77.82
2022-10-19T22:32:58.403Z,77.96
2022-10-19T22:35:25.150Z,77.37
2022-10-19T22:37:52.111Z,77.40
2022-10-19T22:40:18.873Z,78.20
2022-10-19T22:42:58.033Z,78.34
2022-10-19T22:45:24.799Z,78.21
2022-10-19T22:47:51.743Z,78.34
2022-10-19T22:50:18.500Z,78.31
2022-10-19T22:52:45.448Z,78.42
2022-10-19T22:55:12.288Z,78.73
2022-10-19T22:57:39.301Z,78.85
2022-10-19T23:00:06.700Z,78.96
2022-10-19T23:02:34.012Z,79.48
2022-10-19T23:05:01.026Z,79.87
2022-10-19T23:07:28.007Z,79.65
2022-10-19T23:09:54.826Z,80.17
2022-10-19T23:12:22.020Z,79.42
2022-10-19T23:14:48.754Z,79.27
2022-10-19T23:17:15.697Z,80.27
2022-10-19T23:19:42.526Z,81.35
2022-10-19T23:22:09.571Z,82.00
2022-10-19T23:24:36.315Z,81.30
2022-10-19T23:27:03.775Z,81.71
2022-10-19T23:29:30.628Z,82.25
2022-10-19T23:31:57.606Z,81.95
2022-10-19T23:34:24.421Z,81.92
2022-10-19T23:36:51.446Z,81.71
2022-10-19T23:39:18.321Z,81.44
2022-10-19T23:41:45.249Z,81.10
2022-10-19T23:44:12.141Z,81.49
2022-10-19T23:46:39.048Z,81.66
2022-10-19T23:49:05.846Z,81.89
2022-10-19T23:51:32.780Z,81.70
2022-10-19T23:53:59.508Z,82.25
2022-10-19T23:56:28.470Z,82.78
2022-10-19T23:58:56.173Z,82.49
